sensor_id;sensor_type;location;lat;lon;timestamp;temperature;humidity
24426;DHT22;12611;44.446;26.000;2023-02-15T00:00:08;5.60;75.80
24426;DHT22;12611;44.446;26.000;2023-02-15T00:02:37;5.60;75.50
24426;DHT22;12611;44.446;26.000;2023-02-15T00:05:07;5.60;75.60
24426;DHT22;12611;44.446;26.000;2023-02-15T00:07:35;5.60;75.60
24426;DHT22;12611;44.446;26.000;2023-02-15T00:10:05;5.60;75.50
24426;DHT22;12611;44.446;26.000;2023-02-15T00:12:34;5.60;75.50
24426;DHT22;12611;44.446;26.000;2023-02-15T00:15:02;5.60;75.40
24426;DHT22;12611;44.446;26.000;2023-02-15T00:17:32;5.60;75.40
24426;DHT22;12611;44.446;26.000;2023-02-15T00:20:01;5.60;75.50
24426;DHT22;12611;44.446;26.000;2023-02-15T00:22:29;5.60;75.50
24426;DHT22;12611;44.446;26.000;2023-02-15T00:24:57;5.60;75.40
24426;DHT22;12611;44.446;26.000;2023-02-15T00:27:26;5.60;75.30
24426;DHT22;12611;44.446;26.000;2023-02-15T00:29:54;5.60;75.30
24426;DHT22;12611;44.446;26.000;2023-02-15T00:32:22;5.50;75.10
24426;DHT22;12611;44.446;26.000;2023-02-15T00:34:52;5.50;75.10
24426;DHT22;12611;44.446;26.000;2023-02-15T00:37:20;5.50;75.10
24426;DHT22;12611;44.446;26.000;2023-02-15T00:39:49;5.50;75.00
24426;DHT22;12611;44.446;26.000;2023-02-15T00:42:17;5.50;75.00
24426;DHT22;12611;44.446;26.000;2023-02-15T00:44:45;5.50;74.90
24426;DHT22;12611;44.446;26.000;2023-02-15T00:47:14;5.50;74.90
24426;DHT22;12611;44.446;26.000;2023-02-15T00:49:42;5.50;74.90
24426;DHT22;12611;44.446;26.000;2023-02-15T00:52:12;5.40;74.70
24426;DHT22;12611;44.446;26.000;2023-02-15T00:54:40;5.40;74.70
24426;DHT22;12611;44.446;26.000;2023-02-15T00:57:08;5.40;74.70
24426;DHT22;12611;44.446;26.000;2023-02-15T00:59:37;5.40;74.90
24426;DHT22;12611;44.446;26.000;2023-02-15T01:02:05;5.40;74.90
24426;DHT22;12611;44.446;26.000;2023-02-15T01:04:34;5.40;74.80
24426;DHT22;12611;44.446;26.000;2023-02-15T01:07:02;5.40;75.00
24426;DHT22;12611;44.446;26.000;2023-02-15T01:09:32;5.40;75.00
24426;DHT22;12611;44.446;26.000;2023-02-15T01:12:00;5.40;75.00
24426;DHT22;12611;44.446;26.000;2023-02-15T01:14:29;5.30;75.00
24426;DHT22;12611;44.446;26.000;2023-02-15T01:16:57;5.30;75.10
24426;DHT22;12611;44.446;26.000;2023-02-15T01:19:26;5.30;75.90
24426;DHT22;12611;44.446;26.000;2023-02-15T01:21:54;5.30;75.10
24426;DHT22;12611;44.446;26.000;2023-02-15T01:24:22;5.20;75.20
24426;DHT22;12611;44.446;26.000;2023-02-15T01:26:52;5.30;75.30
24426;DHT22;12611;44.446;26.000;2023-02-15T01:29:20;5.30;75.40
24426;DHT22;12611;44.446;26.000;2023-02-15T01:31:49;5.20;75.20
24426;DHT22;12611;44.446;26.000;2023-02-15T01:34:17;5.20;75.30
24426;DHT22;12611;44.446;26.000;2023-02-15T01:36:45;5.20;75.20
24426;DHT22;12611;44.446;26.000;2023-02-15T01:39:14;5.20;75.20
24426;DHT22;12611;44.446;26.000;2023-02-15T01:41:42;5.20;75.10
24426;DHT22;12611;44.446;26.000;2023-02-15T01:44:50;5.20;75.20
24426;DHT22;12611;44.446;26.000;2023-02-15T01:47:23;5.20;75.20
24426;DHT22;12611;44.446;26.000;2023-02-15T01:50:02;5.20;75.50
24426;DHT22;12611;44.446;26.000;2023-02-15T01:52:31;5.20;75.40
24426;DHT22;12611;44.446;26.000;2023-02-15T01:55:00;5.20;75.60
24426;DHT22;12611;44.446;26.000;2023-02-15T01:57:29;5.20;75.70
24426;DHT22;12611;44.446;26.000;2023-02-15T02:00:01;5.20;75.50
24426;DHT22;12611;44.446;26.000;2023-02-15T02:02:30;5.20;75.50
24426;DHT22;12611;44.446;26.000;2023-02-15T02:05:01;5.10;75.50
24426;DHT22;12611;44.446;26.000;2023-02-15T02:07:35;5.10;75.70
24426;DHT22;12611;44.446;26.000;2023-02-15T02:10:06;5.10;75.90
24426;DHT22;12611;44.446;26.000;2023-02-15T02:12:37;5.10;75.80
24426;DHT22;12611;44.446;26.000;2023-02-15T02:15:09;5.10;75.80
24426;DHT22;12611;44.446;26.000;2023-02-15T02:17:45;5.00;75.70
24426;DHT22;12611;44.446;26.000;2023-02-15T02:20:30;5.00;75.70
24426;DHT22;12611;44.446;26.000;2023-02-15T02:23:19;5.00;75.70
24426;DHT22;12611;44.446;26.000;2023-02-15T02:26:20;5.00;75.80
24426;DHT22;12611;44.446;26.000;2023-02-15T02:29:32;5.00;75.80
24426;DHT22;12611;44.446;26.000;2023-02-15T02:32:27;4.90;75.80
24426;DHT22;12611;44.446;26.000;2023-02-15T02:35:05;4.90;75.80
24426;DHT22;12611;44.446;26.000;2023-02-15T02:37:45;4.90;75.90
24426;DHT22;12611;44.446;26.000;2023-02-15T02:40:20;4.90;75.80
24426;DHT22;12611;44.446;26.000;2023-02-15T02:42:57;4.90;76.00
24426;DHT22;12611;44.446;26.000;2023-02-15T02:45:32;4.80;75.80
24426;DHT22;12611;44.446;26.000;2023-02-15T02:48:07;4.80;75.80
24426;DHT22;12611;44.446;26.000;2023-02-15T02:50:39;4.80;76.00
24426;DHT22;12611;44.446;26.000;2023-02-15T02:53:09;4.80;76.00
24426;DHT22;12611;44.446;26.000;2023-02-15T02:55:41;4.80;76.00
24426;DHT22;12611;44.446;26.000;2023-02-15T02:58:15;4.80;76.00
24426;DHT22;12611;44.446;26.000;2023-02-15T03:00:49;4.80;76.00
24426;DHT22;12611;44.446;26.000;2023-02-15T03:03:22;4.80;76.00
24426;DHT22;12611;44.446;26.000;2023-02-15T03:05:56;4.70;76.00
24426;DHT22;12611;44.446;26.000;2023-02-15T03:08:28;4.70;76.10
24426;DHT22;12611;44.446;26.000;2023-02-15T03:11:00;4.70;76.10
24426;DHT22;12611;44.446;26.000;2023-02-15T03:13:30;4.70;76.10
24426;DHT22;12611;44.446;26.000;2023-02-15T03:16:00;4.70;76.10
24426;DHT22;12611;44.446;26.000;2023-02-15T03:18:50;4.70;76.10
24426;DHT22;12611;44.446;26.000;2023-02-15T03:21:32;4.70;76.10
24426;DHT22;12611;44.446;26.000;2023-02-15T03:24:07;4.70;76.10
24426;DHT22;12611;44.446;26.000;2023-02-15T03:26:36;4.70;76.20
24426;DHT22;12611;44.446;26.000;2023-02-15T03:29:07;4.70;76.30
24426;DHT22;12611;44.446;26.000;2023-02-15T03:31:40;4.60;76.10
24426;DHT22;12611;44.446;26.000;2023-02-15T03:34:12;4.70;76.30
24426;DHT22;12611;44.446;26.000;2023-02-15T03:36:49;4.60;76.20
24426;DHT22;12611;44.446;26.000;2023-02-15T03:39:22;4.60;76.40
24426;DHT22;12611;44.446;26.000;2023-02-15T03:41:58;4.60;76.30
24426;DHT22;12611;44.446;26.000;2023-02-15T03:44:29;4.60;76.30
24426;DHT22;12611;44.446;26.000;2023-02-15T03:47:02;4.60;76.30
24426;DHT22;12611;44.446;26.000;2023-02-15T03:49:40;4.60;76.30
24426;DHT22;12611;44.446;26.000;2023-02-15T03:52:13;4.60;76.40
24426;DHT22;12611;44.446;26.000;2023-02-15T03:54:43;4.50;76.30
24426;DHT22;12611;44.446;26.000;2023-02-15T03:57:16;4.50;77.20
24426;DHT22;12611;44.446;26.000;2023-02-15T04:00:04;4.50;76.50
24426;DHT22;12611;44.446;26.000;2023-02-15T04:03:14;4.50;76.50
24426;DHT22;12611;44.446;26.000;2023-02-15T04:05:45;4.50;77.50
24426;DHT22;12611;44.446;26.000;2023-02-15T04:08:15;4.50;76.60
24426;DHT22;12611;44.446;26.000;2023-02-15T04:10:43;4.50;77.20
24426;DHT22;12611;44.446;26.000;2023-02-15T04:13:20;4.50;77.20
24426;DHT22;12611;44.446;26.000;2023-02-15T04:15:49;4.50;77.20
24426;DHT22;12611;44.446;26.000;2023-02-15T04:18:35;4.40;77.10
24426;DHT22;12611;44.446;26.000;2023-02-15T04:21:22;4.40;77.10
24426;DHT22;12611;44.446;26.000;2023-02-15T04:24:10;4.40;77.10
24426;DHT22;12611;44.446;26.000;2023-02-15T04:26:57;4.40;77.00
24426;DHT22;12611;44.446;26.000;2023-02-15T04:29:26;4.40;77.00
24426;DHT22;12611;44.446;26.000;2023-02-15T04:31:56;4.40;77.00
24426;DHT22;12611;44.446;26.000;2023-02-15T04:34:25;4.40;76.90
24426;DHT22;12611;44.446;26.000;2023-02-15T04:36:54;4.40;76.90
24426;DHT22;12611;44.446;26.000;2023-02-15T04:39:23;4.40;76.90
24426;DHT22;12611;44.446;26.000;2023-02-15T04:41:52;4.40;76.90
24426;DHT22;12611;44.446;26.000;2023-02-15T04:44:22;4.40;77.00
24426;DHT22;12611;44.446;26.000;2023-02-15T04:46:50;4.40;77.10
24426;DHT22;12611;44.446;26.000;2023-02-15T04:49:19;4.40;77.20
24426;DHT22;12611;44.446;26.000;2023-02-15T04:51:47;4.30;77.10
24426;DHT22;12611;44.446;26.000;2023-02-15T04:54:15;4.40;77.20
24426;DHT22;12611;44.446;26.000;2023-02-15T04:56:45;4.30;77.30
24426;DHT22;12611;44.446;26.000;2023-02-15T04:59:13;4.30;77.20
24426;DHT22;12611;44.446;26.000;2023-02-15T05:01:42;4.40;77.30
24426;DHT22;12611;44.446;26.000;2023-02-15T05:04:11;4.30;77.30
24426;DHT22;12611;44.446;26.000;2023-02-15T05:06:39;4.30;77.20
24426;DHT22;12611;44.446;26.000;2023-02-15T05:09:07;4.40;77.40
24426;DHT22;12611;44.446;26.000;2023-02-15T05:11:36;4.30;77.20
24426;DHT22;12611;44.446;26.000;2023-02-15T05:14:06;4.40;77.30
24426;DHT22;12611;44.446;26.000;2023-02-15T05:16:34;4.40;77.40
24426;DHT22;12611;44.446;26.000;2023-02-15T05:19:03;4.30;77.80
24426;DHT22;12611;44.446;26.000;2023-02-15T05:21:31;4.30;77.80
24426;DHT22;12611;44.446;26.000;2023-02-15T05:24:00;4.30;77.80
24426;DHT22;12611;44.446;26.000;2023-02-15T05:26:48;4.30;78.10
24426;DHT22;12611;44.446;26.000;2023-02-15T05:29:36;4.30;78.40
24426;DHT22;12611;44.446;26.000;2023-02-15T05:32:04;4.20;78.80
24426;DHT22;12611;44.446;26.000;2023-02-15T05:34:33;4.20;78.80
24426;DHT22;12611;44.446;26.000;2023-02-15T05:37:04;4.20;79.90
24426;DHT22;12611;44.446;26.000;2023-02-15T05:39:32;4.20;79.20
24426;DHT22;12611;44.446;26.000;2023-02-15T05:42:01;4.20;79.30
24426;DHT22;12611;44.446;26.000;2023-02-15T05:44:29;4.20;79.40
24426;DHT22;12611;44.446;26.000;2023-02-15T05:46:59;4.20;79.60
24426;DHT22;12611;44.446;26.000;2023-02-15T05:49:29;4.20;79.70
24426;DHT22;12611;44.446;26.000;2023-02-15T05:51:58;4.20;79.60
24426;DHT22;12611;44.446;26.000;2023-02-15T05:54:26;4.10;79.60
24426;DHT22;12611;44.446;26.000;2023-02-15T05:56:55;4.10;79.70
24426;DHT22;12611;44.446;26.000;2023-02-15T05:59:23;4.20;79.90
24426;DHT22;12611;44.446;26.000;2023-02-15T06:01:52;4.10;79.80
24426;DHT22;12611;44.446;26.000;2023-02-15T06:04:22;4.20;79.90
24426;DHT22;12611;44.446;26.000;2023-02-15T06:06:50;4.20;80.00
24426;DHT22;12611;44.446;26.000;2023-02-15T06:09:19;4.20;80.00
24426;DHT22;12611;44.446;26.000;2023-02-15T06:11:47;4.20;80.90
24426;DHT22;12611;44.446;26.000;2023-02-15T06:14:16;4.20;80.00
24426;DHT22;12611;44.446;26.000;2023-02-15T06:16:44;4.30;80.10
24426;DHT22;12611;44.446;26.000;2023-02-15T06:19:13;4.30;80.20
24426;DHT22;12611;44.446;26.000;2023-02-15T06:21:43;4.30;80.30
24426;DHT22;12611;44.446;26.000;2023-02-15T06:24:11;4.40;80.50
24426;DHT22;12611;44.446;26.000;2023-02-15T06:26:40;4.40;80.60
24426;DHT22;12611;44.446;26.000;2023-02-15T06:29:08;4.50;80.60
24426;DHT22;12611;44.446;26.000;2023-02-15T06:31:37;4.50;80.80
24426;DHT22;12611;44.446;26.000;2023-02-15T06:34:06;4.60;81.10
24426;DHT22;12611;44.446;26.000;2023-02-15T06:36:34;4.60;81.10
24426;DHT22;12611;44.446;26.000;2023-02-15T06:39:05;4.60;81.10
24426;DHT22;12611;44.446;26.000;2023-02-15T06:41:33;4.70;81.20
24426;DHT22;12611;44.446;26.000;2023-02-15T06:44:01;4.70;81.10
24426;DHT22;12611;44.446;26.000;2023-02-15T06:46:30;4.80;81.10
24426;DHT22;12611;44.446;26.000;2023-02-15T06:48:58;4.90;81.10
24426;DHT22;12611;44.446;26.000;2023-02-15T06:51:27;4.90;81.10
24426;DHT22;12611;44.446;26.000;2023-02-15T06:53:55;5.00;81.70
24426;DHT22;12611;44.446;26.000;2023-02-15T06:56:25;5.00;81.70
24426;DHT22;12611;44.446;26.000;2023-02-15T06:58:53;5.10;81.90
24426;DHT22;12611;44.446;26.000;2023-02-15T07:01:21;5.20;81.90
24426;DHT22;12611;44.446;26.000;2023-02-15T07:03:50;5.20;82.00
24426;DHT22;12611;44.446;26.000;2023-02-15T07:06:18;5.30;82.00
24426;DHT22;12611;44.446;26.000;2023-02-15T07:08:46;5.40;82.00
24426;DHT22;12611;44.446;26.000;2023-02-15T07:11:15;5.50;82.00
24426;DHT22;12611;44.446;26.000;2023-02-15T07:14:02;5.50;81.90
24426;DHT22;12611;44.446;26.000;2023-02-15T07:16:30;5.60;82.70
24426;DHT22;12611;44.446;26.000;2023-02-15T07:18:59;5.70;81.80
24426;DHT22;12611;44.446;26.000;2023-02-15T07:21:27;5.70;81.60
24426;DHT22;12611;44.446;26.000;2023-02-15T07:23:56;5.80;81.60
24426;DHT22;12611;44.446;26.000;2023-02-15T07:26:25;5.90;81.50
24426;DHT22;12611;44.446;26.000;2023-02-15T07:28:54;6.00;81.50
24426;DHT22;12611;44.446;26.000;2023-02-15T07:31:23;6.10;81.40
24426;DHT22;12611;44.446;26.000;2023-02-15T07:33:52;6.20;81.40
24426;DHT22;12611;44.446;26.000;2023-02-15T07:36:20;6.30;81.30
24426;DHT22;12611;44.446;26.000;2023-02-15T07:38:48;6.30;81.30
24426;DHT22;12611;44.446;26.000;2023-02-15T07:41:17;6.40;81.30
24426;DHT22;12611;44.446;26.000;2023-02-15T07:43:45;6.50;81.30
24426;DHT22;12611;44.446;26.000;2023-02-15T07:46:15;6.50;81.20
24426;DHT22;12611;44.446;26.000;2023-02-15T07:48:46;6.60;81.00
24426;DHT22;12611;44.446;26.000;2023-02-15T07:51:15;6.70;81.90
24426;DHT22;12611;44.446;26.000;2023-02-15T07:53:43;6.80;81.20
24426;DHT22;12611;44.446;26.000;2023-02-15T07:56:12;6.80;81.00
24426;DHT22;12611;44.446;26.000;2023-02-15T07:58:41;6.80;81.00
24426;DHT22;12611;44.446;26.000;2023-02-15T08:01:20;6.90;81.00
24426;DHT22;12611;44.446;26.000;2023-02-15T08:03:50;7.00;81.00
24426;DHT22;12611;44.446;26.000;2023-02-15T08:06:19;7.10;81.00
24426;DHT22;12611;44.446;26.000;2023-02-15T08:08:47;7.10;80.50
24426;DHT22;12611;44.446;26.000;2023-02-15T08:11:18;7.20;80.40
24426;DHT22;12611;44.446;26.000;2023-02-15T08:13:57;7.30;80.00
24426;DHT22;12611;44.446;26.000;2023-02-15T08:16:29;7.40;79.80
24426;DHT22;12611;44.446;26.000;2023-02-15T08:19:01;7.50;80.00
24426;DHT22;12611;44.446;26.000;2023-02-15T08:21:31;7.60;79.90
24426;DHT22;12611;44.446;26.000;2023-02-15T08:24:00;7.60;79.80
24426;DHT22;12611;44.446;26.000;2023-02-15T08:26:30;7.80;79.70
24426;DHT22;12611;44.446;26.000;2023-02-15T08:28:58;7.80;79.00
24426;DHT22;12611;44.446;26.000;2023-02-15T08:31:28;7.90;78.60
24426;DHT22;12611;44.446;26.000;2023-02-15T08:33:57;7.90;78.40
24426;DHT22;12611;44.446;26.000;2023-02-15T08:36:28;8.10;78.60
24426;DHT22;12611;44.446;26.000;2023-02-15T08:38:58;8.20;78.50
24426;DHT22;12611;44.446;26.000;2023-02-15T08:41:27;8.20;78.10
24426;DHT22;12611;44.446;26.000;2023-02-15T08:43:58;8.30;78.20
24426;DHT22;12611;44.446;26.000;2023-02-15T08:46:28;8.40;77.80
24426;DHT22;12611;44.446;26.000;2023-02-15T08:48:58;8.50;77.60
24426;DHT22;12611;44.446;26.000;2023-02-15T08:51:29;8.60;77.30
24426;DHT22;12611;44.446;26.000;2023-02-15T08:53:58;8.70;76.90
24426;DHT22;12611;44.446;26.000;2023-02-15T08:56:29;8.80;76.70
24426;DHT22;12611;44.446;26.000;2023-02-15T08:58:58;8.80;75.80
24426;DHT22;12611;44.446;26.000;2023-02-15T09:01:28;9.00;76.00
24426;DHT22;12611;44.446;26.000;2023-02-15T09:03:58;9.00;74.40
24426;DHT22;12611;44.446;26.000;2023-02-15T09:06:29;9.20;73.80
24426;DHT22;12611;44.446;26.000;2023-02-15T09:08:57;9.30;73.80
24426;DHT22;12611;44.446;26.000;2023-02-15T09:11:28;9.40;73.40
24426;DHT22;12611;44.446;26.000;2023-02-15T09:13:58;9.50;73.10
24426;DHT22;12611;44.446;26.000;2023-02-15T09:16:28;9.50;73.00
24426;DHT22;12611;44.446;26.000;2023-02-15T09:18:57;9.60;72.60
24426;DHT22;12611;44.446;26.000;2023-02-15T09:21:27;9.60;72.40
24426;DHT22;12611;44.446;26.000;2023-02-15T09:24:00;9.70;72.10
24426;DHT22;12611;44.446;26.000;2023-02-15T09:26:34;9.80;71.50
24426;DHT22;12611;44.446;26.000;2023-02-15T09:29:03;9.80;71.30
24426;DHT22;12611;44.446;26.000;2023-02-15T09:31:33;9.90;71.00
24426;DHT22;12611;44.446;26.000;2023-02-15T09:34:02;10.00;69.90
24426;DHT22;12611;44.446;26.000;2023-02-15T09:36:33;10.00;68.90
24426;DHT22;12611;44.446;26.000;2023-02-15T09:39:07;10.10;69.10
24426;DHT22;12611;44.446;26.000;2023-02-15T09:41:56;10.10;67.90
24426;DHT22;12611;44.446;26.000;2023-02-15T09:44:33;10.20;68.30
24426;DHT22;12611;44.446;26.000;2023-02-15T09:47:29;10.40;68.50
24426;DHT22;12611;44.446;26.000;2023-02-15T09:50:07;10.40;66.40
24426;DHT22;12611;44.446;26.000;2023-02-15T09:53:01;10.40;64.20
24426;DHT22;12611;44.446;26.000;2023-02-15T09:55:46;10.50;64.80
24426;DHT22;12611;44.446;26.000;2023-02-15T09:58:22;10.60;66.00
24426;DHT22;12611;44.446;26.000;2023-02-15T10:00:58;10.60;63.90
24426;DHT22;12611;44.446;26.000;2023-02-15T10:03:51;10.70;63.50
24426;DHT22;12611;44.446;26.000;2023-02-15T10:06:32;10.80;63.60
24426;DHT22;12611;44.446;26.000;2023-02-15T10:09:23;10.80;63.80
24426;DHT22;12611;44.446;26.000;2023-02-15T10:12:08;10.90;62.50
24426;DHT22;12611;44.446;26.000;2023-02-15T10:17:50;11.10;63.40
24426;DHT22;12611;44.446;26.000;2023-02-15T10:20:27;11.20;63.00
24426;DHT22;12611;44.446;26.000;2023-02-15T10:23:09;11.30;63.40
24426;DHT22;12611;44.446;26.000;2023-02-15T10:25:47;11.30;61.80
24426;DHT22;12611;44.446;26.000;2023-02-15T10:28:19;11.30;60.20
24426;DHT22;12611;44.446;26.000;2023-02-15T10:30:49;11.40;59.70
24426;DHT22;12611;44.446;26.000;2023-02-15T10:33:37;11.40;59.20
24426;DHT22;12611;44.446;26.000;2023-02-15T10:36:16;11.40;59.30
24426;DHT22;12611;44.446;26.000;2023-02-15T10:38:50;11.40;59.20
24426;DHT22;12611;44.446;26.000;2023-02-15T10:41:30;11.50;60.00
24426;DHT22;12611;44.446;26.000;2023-02-15T10:44:18;11.60;60.30
24426;DHT22;12611;44.446;26.000;2023-02-15T10:47:01;11.70;59.60
24426;DHT22;12611;44.446;26.000;2023-02-15T10:49:47;11.70;59.20
24426;DHT22;12611;44.446;26.000;2023-02-15T10:52:28;11.70;59.00
24426;DHT22;12611;44.446;26.000;2023-02-15T10:55:06;11.70;58.90
24426;DHT22;12611;44.446;26.000;2023-02-15T10:57:45;11.70;58.90
24426;DHT22;12611;44.446;26.000;2023-02-15T11:00:22;11.80;58.50
24426;DHT22;12611;44.446;26.000;2023-02-15T11:03:20;11.80;58.80
24426;DHT22;12611;44.446;26.000;2023-02-15T11:06:00;11.90;58.50
24426;DHT22;12611;44.446;26.000;2023-02-15T11:08:35;12.00;58.20
24426;DHT22;12611;44.446;26.000;2023-02-15T11:11:06;12.00;57.80
24426;DHT22;12611;44.446;26.000;2023-02-15T11:13:40;12.00;57.70
24426;DHT22;12611;44.446;26.000;2023-02-15T11:16:12;12.10;58.20
24426;DHT22;12611;44.446;26.000;2023-02-15T11:18:48;12.10;58.50
24426;DHT22;12611;44.446;26.000;2023-02-15T11:21:21;12.20;58.30
24426;DHT22;12611;44.446;26.000;2023-02-15T11:23:52;12.20;58.40
24426;DHT22;12611;44.446;26.000;2023-02-15T11:26:27;12.30;58.30
24426;DHT22;12611;44.446;26.000;2023-02-15T11:29:00;12.30;58.10
24426;DHT22;12611;44.446;26.000;2023-02-15T11:31:37;12.40;57.70
24426;DHT22;12611;44.446;26.000;2023-02-15T11:34:15;12.40;57.50
24426;DHT22;12611;44.446;26.000;2023-02-15T11:36:47;12.50;58.00
24426;DHT22;12611;44.446;26.000;2023-02-15T11:39:18;12.60;57.90
24426;DHT22;12611;44.446;26.000;2023-02-15T11:41:50;12.70;57.20
24426;DHT22;12611;44.446;26.000;2023-02-15T11:44:25;12.70;57.00
24426;DHT22;12611;44.446;26.000;2023-02-15T11:46:58;12.80;56.50
24426;DHT22;12611;44.446;26.000;2023-02-15T11:49:31;12.80;55.90
24426;DHT22;12611;44.446;26.000;2023-02-15T11:52:02;12.90;55.80
24426;DHT22;12611;44.446;26.000;2023-02-15T11:54:36;12.90;55.00
24426;DHT22;12611;44.446;26.000;2023-02-15T11:57:13;13.00;55.30
24426;DHT22;12611;44.446;26.000;2023-02-15T11:59:48;13.10;55.10
24426;DHT22;12611;44.446;26.000;2023-02-15T12:02:22;13.20;55.40
24426;DHT22;12611;44.446;26.000;2023-02-15T12:04:56;13.20;54.80
24426;DHT22;12611;44.446;26.000;2023-02-15T12:07:28;13.30;55.50
24426;DHT22;12611;44.446;26.000;2023-02-15T12:10:02;13.30;55.10
24426;DHT22;12611;44.446;26.000;2023-02-15T12:12:35;13.30;55.20
24426;DHT22;12611;44.446;26.000;2023-02-15T12:15:11;13.40;55.10
24426;DHT22;12611;44.446;26.000;2023-02-15T12:17:48;13.40;54.90
24426;DHT22;12611;44.446;26.000;2023-02-15T12:20:28;13.50;55.40
24426;DHT22;12611;44.446;26.000;2023-02-15T12:23:00;13.60;55.90
24426;DHT22;12611;44.446;26.000;2023-02-15T12:25:35;13.60;55.70
24426;DHT22;12611;44.446;26.000;2023-02-15T12:28:05;13.70;55.70
24426;DHT22;12611;44.446;26.000;2023-02-15T12:30:46;13.80;55.90
24426;DHT22;12611;44.446;26.000;2023-02-15T12:33:21;13.90;55.50
24426;DHT22;12611;44.446;26.000;2023-02-15T12:35:57;13.80;54.60
24426;DHT22;12611;44.446;26.000;2023-02-15T12:38:28;13.90;55.00
24426;DHT22;12611;44.446;26.000;2023-02-15T12:40:59;13.90;55.20
24426;DHT22;12611;44.446;26.000;2023-02-15T12:43:32;14.00;55.00
24426;DHT22;12611;44.446;26.000;2023-02-15T12:46:21;14.00;54.70
24426;DHT22;12611;44.446;26.000;2023-02-15T12:49:06;14.10;55.30
24426;DHT22;12611;44.446;26.000;2023-02-15T12:51:47;14.10;54.80
24426;DHT22;12611;44.446;26.000;2023-02-15T12:54:36;14.20;54.90
24426;DHT22;12611;44.446;26.000;2023-02-15T12:57:23;14.30;55.00
24426;DHT22;12611;44.446;26.000;2023-02-15T12:59:55;14.30;54.10
24426;DHT22;12611;44.446;26.000;2023-02-15T13:02:28;14.30;54.70
24426;DHT22;12611;44.446;26.000;2023-02-15T13:05:05;14.40;54.80
24426;DHT22;12611;44.446;26.000;2023-02-15T13:07:37;14.40;53.90
24426;DHT22;12611;44.446;26.000;2023-02-15T13:10:20;14.50;53.50
24426;DHT22;12611;44.446;26.000;2023-02-15T13:12:49;14.60;53.30
24426;DHT22;12611;44.446;26.000;2023-02-15T13:15:32;14.80;54.00
24426;DHT22;12611;44.446;26.000;2023-02-15T13:18:05;15.00;53.50
24426;DHT22;12611;44.446;26.000;2023-02-15T13:20:38;15.10;53.90
24426;DHT22;12611;44.446;26.000;2023-02-15T13:23:21;15.30;53.90
24426;DHT22;12611;44.446;26.000;2023-02-15T13:25:58;15.50;53.80
24426;DHT22;12611;44.446;26.000;2023-02-15T13:28:36;15.80;53.60
24426;DHT22;12611;44.446;26.000;2023-02-15T13:31:13;16.10;53.20
24426;DHT22;12611;44.446;26.000;2023-02-15T13:34:28;16.40;52.20
24426;DHT22;12611;44.446;26.000;2023-02-15T13:37:01;17.00;52.00
24426;DHT22;12611;44.446;26.000;2023-02-15T13:39:47;17.50;51.90
24426;DHT22;12611;44.446;26.000;2023-02-15T13:42:26;17.90;51.50
24426;DHT22;12611;44.446;26.000;2023-02-15T13:45:40;18.40;48.90
24426;DHT22;12611;44.446;26.000;2023-02-15T13:48:16;19.20;47.90
24426;DHT22;12611;44.446;26.000;2023-02-15T13:51:02;20.20;45.60
24426;DHT22;12611;44.446;26.000;2023-02-15T13:53:59;20.10;43.40
24426;DHT22;12611;44.446;26.000;2023-02-15T13:56:36;20.10;44.20
24426;DHT22;12611;44.446;26.000;2023-02-15T13:59:26;21.10;43.10
24426;DHT22;12611;44.446;26.000;2023-02-15T14:02:22;23.40;41.80
24426;DHT22;12611;44.446;26.000;2023-02-15T14:05:09;26.40;38.00
24426;DHT22;12611;44.446;26.000;2023-02-15T14:07:53;25.70;34.70
24426;DHT22;12611;44.446;26.000;2023-02-15T14:10:42;26.90;32.90
24426;DHT22;12611;44.446;26.000;2023-02-15T14:16:27;25.40;32.50
24426;DHT22;12611;44.446;26.000;2023-02-15T14:19:10;24.20;33.70
24426;DHT22;12611;44.446;26.000;2023-02-15T14:21:46;24.10;33.70
24426;DHT22;12611;44.446;26.000;2023-02-15T14:24:26;23.20;34.60
24426;DHT22;12611;44.446;26.000;2023-02-15T14:27:04;23.70;34.90
24426;DHT22;12611;44.446;26.000;2023-02-15T14:29:46;24.00;34.20
24426;DHT22;12611;44.446;26.000;2023-02-15T14:32:21;23.50;34.90
24426;DHT22;12611;44.446;26.000;2023-02-15T14:34:53;23.70;35.00
24426;DHT22;12611;44.446;26.000;2023-02-15T14:37:35;23.20;34.60
24426;DHT22;12611;44.446;26.000;2023-02-15T14:40:17;22.30;35.60
24426;DHT22;12611;44.446;26.000;2023-02-15T14:43:09;22.30;36.00
24426;DHT22;12611;44.446;26.000;2023-02-15T14:45:43;22.80;34.80
24426;DHT22;12611;44.446;26.000;2023-02-15T14:48:20;22.90;34.90
24426;DHT22;12611;44.446;26.000;2023-02-15T14:50:49;23.00;34.80
24426;DHT22;12611;44.446;26.000;2023-02-15T14:53:39;23.00;34.60
24426;DHT22;12611;44.446;26.000;2023-02-15T14:56:20;22.80;35.00
24426;DHT22;12611;44.446;26.000;2023-02-15T14:59:13;22.30;34.40
24426;DHT22;12611;44.446;26.000;2023-02-15T15:01:51;21.80;35.30
24426;DHT22;12611;44.446;26.000;2023-02-15T15:04:27;21.20;36.40
24426;DHT22;12611;44.446;26.000;2023-02-15T15:07:09;20.90;36.20
24426;DHT22;12611;44.446;26.000;2023-02-15T15:09:43;20.70;36.60
24426;DHT22;12611;44.446;26.000;2023-02-15T15:12:36;20.00;37.30
24426;DHT22;12611;44.446;26.000;2023-02-15T15:15:06;19.40;37.90
24426;DHT22;12611;44.446;26.000;2023-02-15T15:17:59;18.80;38.40
24426;DHT22;12611;44.446;26.000;2023-02-15T15:20:47;18.30;39.10
24426;DHT22;12611;44.446;26.000;2023-02-15T15:23:47;17.80;39.70
24426;DHT22;12611;44.446;26.000;2023-02-15T15:26:25;17.40;40.40
24426;DHT22;12611;44.446;26.000;2023-02-15T15:29:00;17.00;40.90
24426;DHT22;12611;44.446;26.000;2023-02-15T15:31:43;16.70;41.40
24426;DHT22;12611;44.446;26.000;2023-02-15T15:34:28;16.50;41.80
24426;DHT22;12611;44.446;26.000;2023-02-15T15:37:30;16.20;42.30
24426;DHT22;12611;44.446;26.000;2023-02-15T15:40:22;15.90;42.80
24426;DHT22;12611;44.446;26.000;2023-02-15T15:45:57;15.50;43.60
24426;DHT22;12611;44.446;26.000;2023-02-15T15:48:32;15.20;44.20
24426;DHT22;12611;44.446;26.000;2023-02-15T15:51:05;15.10;44.70
24426;DHT22;12611;44.446;26.000;2023-02-15T15:53:39;14.90;45.10
24426;DHT22;12611;44.446;26.000;2023-02-15T15:56:13;14.60;45.50
24426;DHT22;12611;44.446;26.000;2023-02-15T15:58:46;14.50;45.90
24426;DHT22;12611;44.446;26.000;2023-02-15T16:01:16;14.30;46.20
24426;DHT22;12611;44.446;26.000;2023-02-15T16:03:51;14.10;46.40
24426;DHT22;12611;44.446;26.000;2023-02-15T16:06:28;14.00;46.80
24426;DHT22;12611;44.446;26.000;2023-02-15T16:08:57;13.80;47.10
24426;DHT22;12611;44.446;26.000;2023-02-15T16:11:28;13.70;47.40
24426;DHT22;12611;44.446;26.000;2023-02-15T16:13:57;13.50;47.80
24426;DHT22;12611;44.446;26.000;2023-02-15T16:16:31;13.40;48.10
24426;DHT22;12611;44.446;26.000;2023-02-15T16:18:59;13.30;48.50